sensor_id;sensor_type;location;lat;lon;timestamp;P1;durP1;ratioP1;P2;durP2;ratioP2
75716;SDS011;64333;50.138;14.332;2023-05-07T00:01:37;19.00;;;11.68;;
75716;SDS011;64333;50.138;14.332;2023-05-07T00:04:02;19.38;;;10.90;;
75716;SDS011;64333;50.138;14.332;2023-05-07T00:06:28;19.27;;;11.65;;
75716;SDS011;64333;50.138;14.332;2023-05-07T00:08:54;15.80;;;10.38;;
75716;SDS011;64333;50.138;14.332;2023-05-07T00:11:21;18.08;;;11.18;;
75716;SDS011;64333;50.138;14.332;2023-05-07T00:13:47;17.77;;;10.70;;
75716;SDS011;64333;50.138;14.332;2023-05-07T00:16:12;16.58;;;10.10;;
75716;SDS011;64333;50.138;14.332;2023-05-07T00:18:38;16.35;;;10.52;;
75716;SDS011;64333;50.138;14.332;2023-05-07T00:21:03;17.27;;;9.88;;
75716;SDS011;64333;50.138;14.332;2023-05-07T00:23:29;18.33;;;11.18;;
75716;SDS011;64333;50.138;14.332;2023-05-07T00:25:54;20.20;;;11.10;;
75716;SDS011;64333;50.138;14.332;2023-05-07T00:28:19;14.35;;;9.77;;
75716;SDS011;64333;50.138;14.332;2023-05-07T00:30:45;16.73;;;10.68;;
75716;SDS011;64333;50.138;14.332;2023-05-07T00:33:10;17.05;;;9.68;;
75716;SDS011;64333;50.138;14.332;2023-05-07T00:35:35;17.58;;;10.55;;
75716;SDS011;64333;50.138;14.332;2023-05-07T00:38:01;19.13;;;10.48;;
75716;SDS011;64333;50.138;14.332;2023-05-07T00:40:26;18.05;;;10.90;;
75716;SDS011;64333;50.138;14.332;2023-05-07T00:42:51;16.42;;;10.50;;
75716;SDS011;64333;50.138;14.332;2023-05-07T00:45:21;18.17;;;10.65;;
75716;SDS011;64333;50.138;14.332;2023-05-07T00:47:50;17.70;;;10.77;;
75716;SDS011;64333;50.138;14.332;2023-05-07T00:50:16;16.58;;;10.48;;
75716;SDS011;64333;50.138;14.332;2023-05-07T00:52:42;15.60;;;10.07;;
75716;SDS011;64333;50.138;14.332;2023-05-07T00:55:07;18.63;;;10.05;;
75716;SDS011;64333;50.138;14.332;2023-05-07T00:57:35;14.82;;;9.02;;
75716;SDS011;64333;50.138;14.332;2023-05-07T01:00:03;14.40;;;9.15;;
75716;SDS011;64333;50.138;14.332;2023-05-07T01:02:30;16.63;;;9.32;;
75716;SDS011;64333;50.138;14.332;2023-05-07T01:04:55;16.58;;;8.77;;
75716;SDS011;64333;50.138;14.332;2023-05-07T01:07:21;13.68;;;8.45;;
75716;SDS011;64333;50.138;14.332;2023-05-07T01:09:48;12.98;;;8.50;;
75716;SDS011;64333;50.138;14.332;2023-05-07T01:12:13;13.52;;;9.00;;
75716;SDS011;64333;50.138;14.332;2023-05-07T01:14:40;12.15;;;7.82;;
75716;SDS011;64333;50.138;14.332;2023-05-07T01:17:06;13.63;;;8.85;;
75716;SDS011;64333;50.138;14.332;2023-05-07T01:19:32;15.93;;;9.50;;
75716;SDS011;64333;50.138;14.332;2023-05-07T01:22:00;14.70;;;9.07;;
75716;SDS011;64333;50.138;14.332;2023-05-07T01:24:28;14.60;;;8.98;;
75716;SDS011;64333;50.138;14.332;2023-05-07T01:26:55;14.10;;;8.70;;
75716;SDS011;64333;50.138;14.332;2023-05-07T01:29:20;13.20;;;8.23;;
75716;SDS011;64333;50.138;14.332;2023-05-07T01:31:45;16.35;;;9.07;;
75716;SDS011;64333;50.138;14.332;2023-05-07T01:34:12;15.25;;;8.20;;
75716;SDS011;64333;50.138;14.332;2023-05-07T01:36:42;13.68;;;8.20;;
75716;SDS011;64333;50.138;14.332;2023-05-07T01:39:08;12.05;;;7.18;;
75716;SDS011;64333;50.138;14.332;2023-05-07T01:41:35;18.17;;;8.77;;
75716;SDS011;64333;50.138;14.332;2023-05-07T01:44:00;15.07;;;9.25;;
75716;SDS011;64333;50.138;14.332;2023-05-07T01:46:27;13.05;;;7.78;;
75716;SDS011;64333;50.138;14.332;2023-05-07T01:48:54;13.88;;;8.50;;
75716;SDS011;64333;50.138;14.332;2023-05-07T01:51:20;14.82;;;8.90;;
75716;SDS011;64333;50.138;14.332;2023-05-07T01:53:47;14.90;;;8.32;;
75716;SDS011;64333;50.138;14.332;2023-05-07T01:56:16;16.48;;;8.93;;
75716;SDS011;64333;50.138;14.332;2023-05-07T01:58:42;10.88;;;7.43;;
75716;SDS011;64333;50.138;14.332;2023-05-07T02:01:08;13.80;;;8.07;;
75716;SDS011;64333;50.138;14.332;2023-05-07T02:03:33;15.23;;;8.75;;
75716;SDS011;64333;50.138;14.332;2023-05-07T02:05:58;14.13;;;8.48;;
75716;SDS011;64333;50.138;14.332;2023-05-07T02:08:24;11.40;;;7.13;;
75716;SDS011;64333;50.138;14.332;2023-05-07T02:10:49;15.55;;;8.13;;
75716;SDS011;64333;50.138;14.332;2023-05-07T02:13:16;12.75;;;8.15;;
75716;SDS011;64333;50.138;14.332;2023-05-07T02:15:41;14.20;;;8.65;;
75716;SDS011;64333;50.138;14.332;2023-05-07T02:18:07;14.80;;;8.55;;
75716;SDS011;64333;50.138;14.332;2023-05-07T02:20:34;14.85;;;8.68;;
75716;SDS011;64333;50.138;14.332;2023-05-07T02:23:00;12.40;;;7.88;;
75716;SDS011;64333;50.138;14.332;2023-05-07T02:25:25;13.95;;;8.07;;
75716;SDS011;64333;50.138;14.332;2023-05-07T02:27:50;14.05;;;8.38;;
75716;SDS011;64333;50.138;14.332;2023-05-07T02:30:16;14.23;;;8.65;;
75716;SDS011;64333;50.138;14.332;2023-05-07T02:32:41;12.75;;;8.05;;
75716;SDS011;64333;50.138;14.332;2023-05-07T02:35:07;13.48;;;7.72;;
75716;SDS011;64333;50.138;14.332;2023-05-07T02:37:32;13.80;;;7.97;;
75716;SDS011;64333;50.138;14.332;2023-05-07T02:39:58;12.93;;;7.78;;
75716;SDS011;64333;50.138;14.332;2023-05-07T02:42:23;12.73;;;8.23;;
75716;SDS011;64333;50.138;14.332;2023-05-07T02:44:48;14.57;;;7.88;;
75716;SDS011;64333;50.138;14.332;2023-05-07T02:47:14;13.40;;;6.78;;
75716;SDS011;64333;50.138;14.332;2023-05-07T02:49:40;14.13;;;7.90;;
75716;SDS011;64333;50.138;14.332;2023-05-07T02:52:05;14.95;;;8.35;;
75716;SDS011;64333;50.138;14.332;2023-05-07T02:54:31;12.35;;;7.38;;
75716;SDS011;64333;50.138;14.332;2023-05-07T02:56:56;13.07;;;7.50;;
75716;SDS011;64333;50.138;14.332;2023-05-07T02:59:23;13.63;;;8.15;;
75716;SDS011;64333;50.138;14.332;2023-05-07T03:01:48;14.02;;;7.57;;
75716;SDS011;64333;50.138;14.332;2023-05-07T03:04:14;12.48;;;7.95;;
75716;SDS011;64333;50.138;14.332;2023-05-07T03:06:39;16.27;;;8.07;;
75716;SDS011;64333;50.138;14.332;2023-05-07T03:09:05;13.80;;;8.15;;
75716;SDS011;64333;50.138;14.332;2023-05-07T03:11:30;14.50;;;8.65;;
75716;SDS011;64333;50.138;14.332;2023-05-07T03:13:55;14.65;;;8.27;;
75716;SDS011;64333;50.138;14.332;2023-05-07T03:16:21;15.27;;;7.72;;
75716;SDS011;64333;50.138;14.332;2023-05-07T03:18:46;14.30;;;7.93;;
75716;SDS011;64333;50.138;14.332;2023-05-07T03:21:11;14.90;;;8.23;;
75716;SDS011;64333;50.138;14.332;2023-05-07T03:23:37;13.25;;;7.78;;
75716;SDS011;64333;50.138;14.332;2023-05-07T03:26:02;15.40;;;8.77;;
75716;SDS011;64333;50.138;14.332;2023-05-07T03:28:28;13.60;;;8.02;;
75716;SDS011;64333;50.138;14.332;2023-05-07T03:30:53;14.63;;;8.07;;
75716;SDS011;64333;50.138;14.332;2023-05-07T03:33:18;14.18;;;8.57;;
75716;SDS011;64333;50.138;14.332;2023-05-07T03:35:44;13.93;;;7.82;;
75716;SDS011;64333;50.138;14.332;2023-05-07T03:38:09;14.18;;;8.73;;
75716;SDS011;64333;50.138;14.332;2023-05-07T03:40:35;15.05;;;8.70;;
75716;SDS011;64333;50.138;14.332;2023-05-07T03:43:00;13.65;;;7.75;;
75716;SDS011;64333;50.138;14.332;2023-05-07T03:45:26;16.00;;;9.02;;
75716;SDS011;64333;50.138;14.332;2023-05-07T03:47:51;14.65;;;8.30;;
75716;SDS011;64333;50.138;14.332;2023-05-07T03:50:16;17.60;;;9.30;;
75716;SDS011;64333;50.138;14.332;2023-05-07T03:52:42;18.08;;;9.35;;
75716;SDS011;64333;50.138;14.332;2023-05-07T03:55:08;17.25;;;8.52;;
75716;SDS011;64333;50.138;14.332;2023-05-07T03:57:33;16.80;;;8.63;;
75716;SDS011;64333;50.138;14.332;2023-05-07T03:59:58;15.88;;;8.65;;
75716;SDS011;64333;50.138;14.332;2023-05-07T04:02:24;14.38;;;7.97;;
75716;SDS011;64333;50.138;14.332;2023-05-07T04:04:49;19.17;;;8.82;;
75716;SDS011;64333;50.138;14.332;2023-05-07T04:07:15;17.08;;;8.68;;
75716;SDS011;64333;50.138;14.332;2023-05-07T04:09:40;14.95;;;8.27;;
75716;SDS011;64333;50.138;14.332;2023-05-07T04:12:06;15.15;;;8.38;;
75716;SDS011;64333;50.138;14.332;2023-05-07T04:14:31;14.77;;;8.20;;
75716;SDS011;64333;50.138;14.332;2023-05-07T04:16:57;12.63;;;7.45;;
75716;SDS011;64333;50.138;14.332;2023-05-07T04:19:26;13.93;;;7.65;;
75716;SDS011;64333;50.138;14.332;2023-05-07T04:21:51;12.68;;;7.47;;
75716;SDS011;64333;50.138;14.332;2023-05-07T04:24:16;11.25;;;7.00;;
75716;SDS011;64333;50.138;14.332;2023-05-07T04:26:42;10.93;;;6.43;;
75716;SDS011;64333;50.138;14.332;2023-05-07T04:29:07;12.30;;;7.22;;
75716;SDS011;64333;50.138;14.332;2023-05-07T04:31:32;12.60;;;7.40;;
75716;SDS011;64333;50.138;14.332;2023-05-07T04:33:58;12.05;;;7.05;;
75716;SDS011;64333;50.138;14.332;2023-05-07T04:36:23;11.00;;;6.72;;
75716;SDS011;64333;50.138;14.332;2023-05-07T04:38:52;13.13;;;7.97;;
75716;SDS011;64333;50.138;14.332;2023-05-07T04:41:18;11.80;;;7.43;;
75716;SDS011;64333;50.138;14.332;2023-05-07T04:43:43;12.85;;;7.63;;
75716;SDS011;64333;50.138;14.332;2023-05-07T04:46:08;12.30;;;7.28;;
75716;SDS011;64333;50.138;14.332;2023-05-07T04:48:34;12.75;;;7.18;;
75716;SDS011;64333;50.138;14.332;2023-05-07T04:50:59;13.32;;;8.32;;
75716;SDS011;64333;50.138;14.332;2023-05-07T04:53:25;12.35;;;7.82;;
75716;SDS011;64333;50.138;14.332;2023-05-07T04:55:54;10.98;;;6.88;;
75716;SDS011;64333;50.138;14.332;2023-05-07T04:58:23;13.68;;;7.43;;
75716;SDS011;64333;50.138;14.332;2023-05-07T05:00:48;11.65;;;6.85;;
75716;SDS011;64333;50.138;14.332;2023-05-07T05:03:14;11.75;;;7.00;;
75716;SDS011;64333;50.138;14.332;2023-05-07T05:05:40;11.68;;;7.43;;
75716;SDS011;64333;50.138;14.332;2023-05-07T05:08:05;11.57;;;6.95;;
75716;SDS011;64333;50.138;14.332;2023-05-07T05:10:30;11.38;;;6.13;;
75716;SDS011;64333;50.138;14.332;2023-05-07T05:12:56;9.95;;;6.32;;
75716;SDS011;64333;50.138;14.332;2023-05-07T05:15:21;9.40;;;6.03;;
75716;SDS011;64333;50.138;14.332;2023-05-07T05:17:47;9.20;;;5.60;;
75716;SDS011;64333;50.138;14.332;2023-05-07T05:20:12;8.00;;;5.88;;
75716;SDS011;64333;50.138;14.332;2023-05-07T05:22:38;8.23;;;6.00;;
75716;SDS011;64333;50.138;14.332;2023-05-07T05:25:03;8.77;;;5.50;;
75716;SDS011;64333;50.138;14.332;2023-05-07T05:27:29;8.65;;;5.13;;
75716;SDS011;64333;50.138;14.332;2023-05-07T05:29:55;8.60;;;5.63;;
75716;SDS011;64333;50.138;14.332;2023-05-07T05:32:20;7.95;;;5.43;;
75716;SDS011;64333;50.138;14.332;2023-05-07T05:34:45;7.85;;;4.65;;
75716;SDS011;64333;50.138;14.332;2023-05-07T05:37:11;6.78;;;4.85;;
75716;SDS011;64333;50.138;14.332;2023-05-07T05:39:36;7.65;;;4.82;;
75716;SDS011;64333;50.138;14.332;2023-05-07T05:42:02;8.60;;;5.32;;
75716;SDS011;64333;50.138;14.332;2023-05-07T05:44:27;9.27;;;5.63;;
75716;SDS011;64333;50.138;14.332;2023-05-07T05:46:52;7.30;;;4.78;;
75716;SDS011;64333;50.138;14.332;2023-05-07T05:49:20;7.13;;;4.90;;
75716;SDS011;64333;50.138;14.332;2023-05-07T05:51:46;6.72;;;4.60;;
75716;SDS011;64333;50.138;14.332;2023-05-07T05:54:11;6.18;;;4.32;;
75716;SDS011;64333;50.138;14.332;2023-05-07T05:56:37;7.60;;;4.57;;
75716;SDS011;64333;50.138;14.332;2023-05-07T05:59:03;6.78;;;4.30;;
75716;SDS011;64333;50.138;14.332;2023-05-07T06:01:28;6.43;;;4.78;;
75716;SDS011;64333;50.138;14.332;2023-05-07T06:03:53;5.82;;;4.20;;
75716;SDS011;64333;50.138;14.332;2023-05-07T06:06:19;6.45;;;4.60;;
75716;SDS011;64333;50.138;14.332;2023-05-07T06:08:44;5.53;;;4.07;;
75716;SDS011;64333;50.138;14.332;2023-05-07T06:11:09;7.82;;;4.93;;
75716;SDS011;64333;50.138;14.332;2023-05-07T06:13:35;7.53;;;4.97;;
75716;SDS011;64333;50.138;14.332;2023-05-07T06:16:00;6.88;;;5.00;;
75716;SDS011;64333;50.138;14.332;2023-05-07T06:18:26;8.02;;;5.13;;
75716;SDS011;64333;50.138;14.332;2023-05-07T06:20:51;6.68;;;4.30;;
75716;SDS011;64333;50.138;14.332;2023-05-07T06:23:17;6.88;;;5.10;;
75716;SDS011;64333;50.138;14.332;2023-05-07T06:25:45;5.47;;;4.20;;
75716;SDS011;64333;50.138;14.332;2023-05-07T06:28:13;6.68;;;5.07;;
75716;SDS011;64333;50.138;14.332;2023-05-07T06:30:38;7.05;;;5.05;;
75716;SDS011;64333;50.138;14.332;2023-05-07T06:33:05;7.68;;;4.88;;
75716;SDS011;64333;50.138;14.332;2023-05-07T06:35:30;6.60;;;4.80;;
75716;SDS011;64333;50.138;14.332;2023-05-07T06:37:55;6.43;;;4.65;;
75716;SDS011;64333;50.138;14.332;2023-05-07T06:40:21;6.97;;;4.95;;
75716;SDS011;64333;50.138;14.332;2023-05-07T06:42:46;6.53;;;4.65;;
75716;SDS011;64333;50.138;14.332;2023-05-07T06:45:11;6.85;;;4.57;;
75716;SDS011;64333;50.138;14.332;2023-05-07T06:47:37;6.10;;;3.95;;
75716;SDS011;64333;50.138;14.332;2023-05-07T06:50:02;6.32;;;4.38;;
75716;SDS011;64333;50.138;14.332;2023-05-07T06:52:28;5.97;;;4.18;;
75716;SDS011;64333;50.138;14.332;2023-05-07T06:54:53;6.80;;;4.55;;
75716;SDS011;64333;50.138;14.332;2023-05-07T06:57:18;7.05;;;4.78;;
75716;SDS011;64333;50.138;14.332;2023-05-07T06:59:44;6.68;;;4.25;;
75716;SDS011;64333;50.138;14.332;2023-05-07T07:02:09;5.78;;;4.03;;
75716;SDS011;64333;50.138;14.332;2023-05-07T07:04:35;5.57;;;4.20;;
75716;SDS011;64333;50.138;14.332;2023-05-07T07:07:00;5.55;;;4.30;;
75716;SDS011;64333;50.138;14.332;2023-05-07T07:09:25;5.95;;;4.45;;
75716;SDS011;64333;50.138;14.332;2023-05-07T07:11:51;6.90;;;4.82;;
75716;SDS011;64333;50.138;14.332;2023-05-07T07:14:16;6.10;;;4.75;;
75716;SDS011;64333;50.138;14.332;2023-05-07T07:16:42;5.65;;;4.55;;
75716;SDS011;64333;50.138;14.332;2023-05-07T07:19:07;6.47;;;4.40;;
75716;SDS011;64333;50.138;14.332;2023-05-07T07:21:33;6.88;;;4.90;;
75716;SDS011;64333;50.138;14.332;2023-05-07T07:23:59;6.72;;;5.00;;
75716;SDS011;64333;50.138;14.332;2023-05-07T07:26:25;6.78;;;4.82;;
75716;SDS011;64333;50.138;14.332;2023-05-07T07:28:50;6.68;;;5.28;;
75716;SDS011;64333;50.138;14.332;2023-05-07T07:31:16;6.78;;;5.57;;
75716;SDS011;64333;50.138;14.332;2023-05-07T07:33:41;7.55;;;5.90;;
75716;SDS011;64333;50.138;14.332;2023-05-07T07:36:07;7.72;;;6.18;;
75716;SDS011;64333;50.138;14.332;2023-05-07T07:38:33;6.53;;;5.47;;
75716;SDS011;64333;50.138;14.332;2023-05-07T07:40:58;5.78;;;4.22;;
75716;SDS011;64333;50.138;14.332;2023-05-07T07:43:24;5.57;;;4.25;;
75716;SDS011;64333;50.138;14.332;2023-05-07T07:45:50;6.28;;;4.60;;
75716;SDS011;64333;50.138;14.332;2023-05-07T07:48:16;6.70;;;5.22;;
75716;SDS011;64333;50.138;14.332;2023-05-07T07:50:41;9.07;;;7.18;;
75716;SDS011;64333;50.138;14.332;2023-05-07T07:53:06;6.65;;;5.97;;
75716;SDS011;64333;50.138;14.332;2023-05-07T07:55:32;6.82;;;5.28;;
75716;SDS011;64333;50.138;14.332;2023-05-07T07:57:57;6.38;;;4.60;;
75716;SDS011;64333;50.138;14.332;2023-05-07T08:00:23;5.88;;;4.30;;
75716;SDS011;64333;50.138;14.332;2023-05-07T08:02:48;4.65;;;3.92;;
75716;SDS011;64333;50.138;14.332;2023-05-07T08:05:14;5.03;;;3.55;;
75716;SDS011;64333;50.138;14.332;2023-05-07T08:07:40;4.28;;;3.55;;
75716;SDS011;64333;50.138;14.332;2023-05-07T08:10:05;4.65;;;3.47;;
75716;SDS011;64333;50.138;14.332;2023-05-07T08:12:31;5.13;;;3.60;;
75716;SDS011;64333;50.138;14.332;2023-05-07T08:14:56;4.50;;;3.63;;
75716;SDS011;64333;50.138;14.332;2023-05-07T08:17:22;5.13;;;4.15;;
75716;SDS011;64333;50.138;14.332;2023-05-07T08:19:47;5.63;;;3.78;;
75716;SDS011;64333;50.138;14.332;2023-05-07T08:22:13;5.65;;;4.32;;
75716;SDS011;64333;50.138;14.332;2023-05-07T08:24:39;5.05;;;4.30;;
75716;SDS011;64333;50.138;14.332;2023-05-07T08:27:05;5.78;;;4.00;;
75716;SDS011;64333;50.138;14.332;2023-05-07T08:29:30;9.80;;;6.53;;
75716;SDS011;64333;50.138;14.332;2023-05-07T08:31:56;5.95;;;4.65;;
75716;SDS011;64333;50.138;14.332;2023-05-07T08:34:21;6.15;;;4.63;;
75716;SDS011;64333;50.138;14.332;2023-05-07T08:36:47;5.13;;;3.80;;
75716;SDS011;64333;50.138;14.332;2023-05-07T08:39:13;5.97;;;4.55;;
75716;SDS011;64333;50.138;14.332;2023-05-07T08:41:40;6.07;;;4.70;;
75716;SDS011;64333;50.138;14.332;2023-05-07T08:49:06;6.25;;;4.80;;
75716;SDS011;64333;50.138;14.332;2023-05-07T08:51:32;5.55;;;4.55;;
75716;SDS011;64333;50.138;14.332;2023-05-07T08:53:58;6.10;;;4.43;;
75716;SDS011;64333;50.138;14.332;2023-05-07T08:56:26;6.60;;;4.72;;
75716;SDS011;64333;50.138;14.332;2023-05-07T08:58:51;7.05;;;4.97;;
75716;SDS011;64333;50.138;14.332;2023-05-07T09:01:21;5.45;;;4.38;;
75716;SDS011;64333;50.138;14.332;2023-05-07T09:03:46;5.63;;;4.28;;
75716;SDS011;64333;50.138;14.332;2023-05-07T09:06:12;6.97;;;4.88;;
75716;SDS011;64333;50.138;14.332;2023-05-07T09:08:38;6.88;;;5.00;;
75716;SDS011;64333;50.138;14.332;2023-05-07T09:11:03;6.45;;;4.93;;
75716;SDS011;64333;50.138;14.332;2023-05-07T09:13:29;6.63;;;4.70;;
75716;SDS011;64333;50.138;14.332;2023-05-07T09:15:54;6.20;;;4.28;;
75716;SDS011;64333;50.138;14.332;2023-05-07T09:18:20;5.25;;;4.20;;
75716;SDS011;64333;50.138;14.332;2023-05-07T09:20:46;5.65;;;4.57;;
75716;SDS011;64333;50.138;14.332;2023-05-07T09:23:11;5.25;;;4.50;;
75716;SDS011;64333;50.138;14.332;2023-05-07T09:25:37;4.30;;;3.90;;
75716;SDS011;64333;50.138;14.332;2023-05-07T09:28:03;5.38;;;4.13;;
75716;SDS011;64333;50.138;14.332;2023-05-07T09:30:30;5.90;;;4.03;;
75716;SDS011;64333;50.138;14.332;2023-05-07T09:33:00;4.60;;;3.75;;
75716;SDS011;64333;50.138;14.332;2023-05-07T09:35:28;5.32;;;4.40;;
75716;SDS011;64333;50.138;14.332;2023-05-07T09:37:58;5.15;;;3.95;;
75716;SDS011;64333;50.138;14.332;2023-05-07T09:40:26;5.97;;;4.43;;
75716;SDS011;64333;50.138;14.332;2023-05-07T09:42:53;5.25;;;4.25;;
75716;SDS011;64333;50.138;14.332;2023-05-07T09:45:25;5.28;;;4.45;;
75716;SDS011;64333;50.138;14.332;2023-05-07T09:47:53;5.57;;;4.63;;
75716;SDS011;64333;50.138;14.332;2023-05-07T09:50:22;6.53;;;4.60;;
75716;SDS011;64333;50.138;14.332;2023-05-07T09:52:52;4.55;;;3.83;;
75716;SDS011;64333;50.138;14.332;2023-05-07T09:55:18;4.40;;;4.00;;
75716;SDS011;64333;50.138;14.332;2023-05-07T09:57:45;4.25;;;3.85;;
75716;SDS011;64333;50.138;14.332;2023-05-07T10:00:11;4.65;;;3.88;;
75716;SDS011;64333;50.138;14.332;2023-05-07T10:02:37;5.93;;;4.10;;
75716;SDS011;64333;50.138;14.332;2023-05-07T10:05:11;4.70;;;4.03;;
75716;SDS011;64333;50.138;14.332;2023-05-07T10:07:37;6.55;;;5.10;;
75716;SDS011;64333;50.138;14.332;2023-05-07T10:10:03;6.20;;;4.60;;
75716;SDS011;64333;50.138;14.332;2023-05-07T10:12:29;6.40;;;4.25;;
75716;SDS011;64333;50.138;14.332;2023-05-07T10:15:02;6.80;;;5.07;;
75716;SDS011;64333;50.138;14.332;2023-05-07T10:17:29;6.13;;;4.35;;
75716;SDS011;64333;50.138;14.332;2023-05-07T10:19:54;6.38;;;4.72;;
75716;SDS011;64333;50.138;14.332;2023-05-07T10:22:20;5.80;;;4.55;;
75716;SDS011;64333;50.138;14.332;2023-05-07T10:24:47;6.03;;;4.57;;
75716;SDS011;64333;50.138;14.332;2023-05-07T10:29:58;4.90;;;4.40;;
75716;SDS011;64333;50.138;14.332;2023-05-07T10:32:37;5.68;;;4.90;;
75716;SDS011;64333;50.138;14.332;2023-05-07T10:35:06;5.05;;;4.55;;
75716;SDS011;64333;50.138;14.332;2023-05-07T10:37:54;4.80;;;3.97;;
75716;SDS011;64333;50.138;14.332;2023-05-07T10:40:20;5.50;;;4.40;;
75716;SDS011;64333;50.138;14.332;2023-05-07T10:42:59;5.05;;;4.13;;
75716;SDS011;64333;50.138;14.332;2023-05-07T10:45:26;5.60;;;4.75;;
75716;SDS011;64333;50.138;14.332;2023-05-07T10:48:05;5.75;;;4.53;;
75716;SDS011;64333;50.138;14.332;2023-05-07T10:50:38;5.57;;;4.32;;
75716;SDS011;64333;50.138;14.332;2023-05-07T10:53:26;5.57;;;4.20;;
75716;SDS011;64333;50.138;14.332;2023-05-07T10:56:25;6.05;;;4.68;;
75716;SDS011;64333;50.138;14.332;2023-05-07T10:58:43;7.18;;;4.50;;
75716;SDS011;64333;50.138;14.332;2023-05-07T11:01:09;5.22;;;4.72;;
75716;SDS011;64333;50.138;14.332;2023-05-07T11:03:36;7.22;;;4.88;;
75716;SDS011;64333;50.138;14.332;2023-05-07T11:06:47;5.70;;;4.90;;
75716;SDS011;64333;50.138;14.332;2023-05-07T11:12:19;6.72;;;4.82;;
75716;SDS011;64333;50.138;14.332;2023-05-07T11:17:32;6.03;;;4.75;;
75716;SDS011;64333;50.138;14.332;2023-05-07T11:19:59;5.13;;;4.43;;
75716;SDS011;64333;50.138;14.332;2023-05-07T11:25:02;6.43;;;4.30;;
75716;SDS011;64333;50.138;14.332;2023-05-07T11:27:28;5.93;;;4.50;;
75716;SDS011;64333;50.138;14.332;2023-05-07T11:29:54;5.30;;;4.43;;
75716;SDS011;64333;50.138;14.332;2023-05-07T11:34:56;24.77;;;17.00;;
75716;SDS011;64333;50.138;14.332;2023-05-07T11:37:25;8.73;;;6.07;;
75716;SDS011;64333;50.138;14.332;2023-05-07T11:40:02;6.68;;;5.10;;
75716;SDS011;64333;50.138;14.332;2023-05-07T11:42:32;6.45;;;4.63;;
75716;SDS011;64333;50.138;14.332;2023-05-07T11:44:59;5.90;;;5.28;;
75716;SDS011;64333;50.138;14.332;2023-05-07T11:47:25;7.25;;;5.10;;
75716;SDS011;64333;50.138;14.332;2023-05-07T11:49:51;6.18;;;5.00;;
75716;SDS011;64333;50.138;14.332;2023-05-07T11:52:19;7.75;;;5.55;;
75716;SDS011;64333;50.138;14.332;2023-05-07T11:54:49;8.88;;;5.45;;
75716;SDS011;64333;50.138;14.332;2023-05-07T11:57:19;9.57;;;7.13;;
75716;SDS011;64333;50.138;14.332;2023-05-07T11:59:45;6.45;;;4.95;;
75716;SDS011;64333;50.138;14.332;2023-05-07T12:02:14;7.70;;;6.60;;
75716;SDS011;64333;50.138;14.332;2023-05-07T12:04:40;10.48;;;7.25;;
75716;SDS011;64333;50.138;14.332;2023-05-07T12:07:15;7.65;;;5.82;;
75716;SDS011;64333;50.138;14.332;2023-05-07T12:09:41;8.45;;;6.50;;
75716;SDS011;64333;50.138;14.332;2023-05-07T12:12:06;9.88;;;7.03;;
75716;SDS011;64333;50.138;14.332;2023-05-07T12:14:32;7.97;;;6.32;;
75716;SDS011;64333;50.138;14.332;2023-05-07T12:16:58;7.38;;;5.78;;
75716;SDS011;64333;50.138;14.332;2023-05-07T12:19:28;8.10;;;6.32;;
75716;SDS011;64333;50.138;14.332;2023-05-07T12:21:54;8.13;;;6.03;;
75716;SDS011;64333;50.138;14.332;2023-05-07T12:24:21;8.32;;;5.93;;
75716;SDS011;64333;50.138;14.332;2023-05-07T12:26:46;7.90;;;5.90;;
75716;SDS011;64333;50.138;14.332;2023-05-07T12:29:13;8.52;;;6.35;;
75716;SDS011;64333;50.138;14.332;2023-05-07T12:31:40;6.70;;;5.88;;
75716;SDS011;64333;50.138;14.332;2023-05-07T12:34:06;6.85;;;5.43;;
75716;SDS011;64333;50.138;14.332;2023-05-07T12:36:38;7.05;;;6.10;;
75716;SDS011;64333;50.138;14.332;2023-05-07T12:39:07;8.10;;;6.15;;
75716;SDS011;64333;50.138;14.332;2023-05-07T12:41:55;6.57;;;5.63;;
75716;SDS011;64333;50.138;14.332;2023-05-07T12:44:23;7.72;;;5.63;;
75716;SDS011;64333;50.138;14.332;2023-05-07T12:46:50;8.38;;;6.43;;
75716;SDS011;64333;50.138;14.332;2023-05-07T12:49:16;7.10;;;5.38;;
75716;SDS011;64333;50.138;14.332;2023-05-07T12:51:43;7.22;;;5.47;;
75716;SDS011;64333;50.138;14.332;2023-05-07T12:54:08;6.57;;;5.50;;
75716;SDS011;64333;50.138;14.332;2023-05-07T12:56:37;6.50;;;5.30;;
75716;SDS011;64333;50.138;14.332;2023-05-07T12:59:02;6.05;;;4.80;;
75716;SDS011;64333;50.138;14.332;2023-05-07T13:01:29;5.30;;;4.80;;
75716;SDS011;64333;50.138;14.332;2023-05-07T13:04:02;5.35;;;4.45;;
75716;SDS011;64333;50.138;14.332;2023-05-07T13:06:29;4.85;;;4.35;;
75716;SDS011;64333;50.138;14.332;2023-05-07T13:08:55;5.85;;;4.47;;
75716;SDS011;64333;50.138;14.332;2023-05-07T13:11:20;6.63;;;5.18;;
75716;SDS011;64333;50.138;14.332;2023-05-07T13:13:46;4.90;;;4.30;;
75716;SDS011;64333;50.138;14.332;2023-05-07T13:16:11;5.95;;;4.75;;
75716;SDS011;64333;50.138;14.332;2023-05-07T13:18:38;5.95;;;4.60;;
75716;SDS011;64333;50.138;14.332;2023-05-07T13:21:04;6.07;;;5.03;;
75716;SDS011;64333;50.138;14.332;2023-05-07T13:23:29;6.13;;;4.88;;
75716;SDS011;64333;50.138;14.332;2023-05-07T13:25:55;8.15;;;6.13;;
75716;SDS011;64333;50.138;14.332;2023-05-07T13:28:21;5.32;;;4.57;;
75716;SDS011;64333;50.138;14.332;2023-05-07T13:30:46;4.88;;;4.40;;
75716;SDS011;64333;50.138;14.332;2023-05-07T13:33:12;6.38;;;5.13;;
75716;SDS011;64333;50.138;14.332;2023-05-07T13:35:38;5.72;;;5.13;;
75716;SDS011;64333;50.138;14.332;2023-05-07T13:38:03;6.40;;;4.97;;
75716;SDS011;64333;50.138;14.332;2023-05-07T13:40:29;5.60;;;4.38;;
75716;SDS011;64333;50.138;14.332;2023-05-07T13:42:56;10.98;;;8.40;;
75716;SDS011;64333;50.138;14.332;2023-05-07T13:45:23;4.63;;;4.13;;
75716;SDS011;64333;50.138;14.332;2023-05-07T13:47:50;5.13;;;4.10;;
75716;SDS011;64333;50.138;14.332;2023-05-07T13:50:17;4.32;;;3.92;;
75716;SDS011;64333;50.138;14.332;2023-05-07T13:52:43;5.00;;;3.75;;
75716;SDS011;64333;50.138;14.332;2023-05-07T13:55:15;4.97;;;4.40;;
75716;SDS011;64333;50.138;14.332;2023-05-07T13:57:44;5.13;;;4.63;;
75716;SDS011;64333;50.138;14.332;2023-05-07T14:00:10;4.15;;;3.67;;
75716;SDS011;64333;50.138;14.332;2023-05-07T14:02:36;4.85;;;4.15;;
75716;SDS011;64333;50.138;14.332;2023-05-07T14:05:02;4.22;;;3.67;;
75716;SDS011;64333;50.138;14.332;2023-05-07T14:07:27;5.10;;;4.18;;
75716;SDS011;64333;50.138;14.332;2023-05-07T14:09:53;4.80;;;4.18;;
75716;SDS011;64333;50.138;14.332;2023-05-07T14:12:19;5.35;;;3.72;;
75716;SDS011;64333;50.138;14.332;2023-05-07T14:14:44;5.93;;;4.50;;
75716;SDS011;64333;50.138;14.332;2023-05-07T14:17:11;10.15;;;6.53;;
75716;SDS011;64333;50.138;14.332;2023-05-07T14:19:37;4.72;;;3.88;;
75716;SDS011;64333;50.138;14.332;2023-05-07T14:22:02;5.40;;;3.50;;
75716;SDS011;64333;50.138;14.332;2023-05-07T14:24:28;3.70;;;2.97;;
75716;SDS011;64333;50.138;14.332;2023-05-07T14:26:53;4.47;;;3.42;;
75716;SDS011;64333;50.138;14.332;2023-05-07T14:29:18;4.13;;;3.70;;
75716;SDS011;64333;50.138;14.332;2023-05-07T14:31:44;5.45;;;3.95;;
75716;SDS011;64333;50.138;14.332;2023-05-07T14:34:10;5.10;;;4.10;;
75716;SDS011;64333;50.138;14.332;2023-05-07T14:36:35;5.50;;;4.30;;
75716;SDS011;64333;50.138;14.332;2023-05-07T14:39:01;5.45;;;3.95;;
75716;SDS011;64333;50.138;14.332;2023-05-07T14:41:27;5.15;;;4.50;;
75716;SDS011;64333;50.138;14.332;2023-05-07T14:43:52;5.80;;;4.65;;